^^
Datos históricos de la estación: Murcia-Puente Tocinos
Diario Informe para Diciembre 02, 2021 Unidades:  Ingés    Métrico   Ambas
Diario Semanal Mensual Anual
  Máxima: Mínima: Promedio:
Temperatura: 59.4 °F 50.4 °F 54.5 °F
Punto de rocio: 47.1 °F 30.4 °F 39.4 °F
Humedad: 88% 41% 59%
Velocidad viento: 16.3mph 1.4mph 8.4mph
Racha viento: 29.1mph - -
Viento- - Oeste
Presión: 30 in 29.8 in -
Precipitación: 0.12 in    
 
 
Tabla de datos para Diciembre 02, 2021
Hora Temperatura Punto de rocio Presión Viento Velocidad viento Racha viento Humedad Intensidad lluvia(por hora) Nubes
00:04 54.9 °F 41 °F 29.9 in North 1.4 mph 4.6 mph 59.5% 0 in
00:09 54.5 °F 41 °F 29.9 in North 1.6 mph 3.5 mph 60% 0 in
00:14 54.3 °F 40.6 °F 29.9 in NO 2.4 mph 3.6 mph 60% 0 in
00:19 54.1 °F 41 °F 29.9 in NNO 2.4 mph 5.2 mph 60.9% 0 in
00:24 54 °F 40.8 °F 29.9 in NNO 2.4 mph 4.6 mph 61.4% 0 in
00:29 53.6 °F 40.8 °F 29.9 in NO 2.4 mph 4.6 mph 62.1% 0 in
00:34 53.4 °F 41.2 °F 29.9 in Oeste 2.4 mph 4.6 mph 63% 0 in
00:39 53.6 °F 41 °F 29.9 in ONO 2.5 mph 4.6 mph 62.4% 0 in
00:44 54 °F 41 °F 29.9 in ONO 2.9 mph 3.5 mph 61.6% 0 in
00:49 54.3 °F 41 °F 29.9 in SO 2.8 mph 4.7 mph 60.5% 0 in
00:54 54.9 °F 41 °F 29.9 in SSO 2.4 mph 5.8 mph 59.4% 0 in
00:59 55.2 °F 41.2 °F 29.9 in Sur 2.7 mph 4.6 mph 59% 0 in
01:04 55.2 °F 41.2 °F 29.9 in SE 3.6 mph 4.6 mph 59% 0 in
01:09 55 °F 41.2 °F 29.9 in SSE 3.3 mph 7.4 mph 59.5% 0 in
01:14 54.5 °F 41 °F 29.9 in Sur 1.8 mph 6.9 mph 60.6% 0 in
01:19 54 °F 41.2 °F 29.8 in SSO 2.1 mph 4.6 mph 61.9% 0 in
01:24 53.6 °F 41.4 °F 29.8 in SO 3.1 mph 3.5 mph 63% 0 in
01:29 53.4 °F 41.2 °F 29.8 in SO 2.8 mph 1.4 mph 63.5% 0 in
01:34 53.2 °F 41.4 °F 29.8 in SO 1.4 mph 4.6 mph 64% 0 in
01:39 53.1 °F 41.5 °F 29.8 in NO 1.5 mph 5.8 mph 64.9% 0 in
01:44 52.3 °F 41.4 °F 29.8 in NNO 2 mph 7.6 mph 65.8% 0 in
01:49 51.8 °F 41.2 °F 29.8 in NO 2.4 mph 8.1 mph 67% 0 in
01:54 51.6 °F 41.4 °F 29.8 in NO 4.3 mph 6.2 mph 67.8% 0 in
01:59 51.8 °F 41.5 °F 29.8 in NO 4.4 mph 9.7 mph 68% 0 in
02:04 52.5 °F 43 °F 29.8 in NO 4.7 mph 17.5 mph 70% 0 in
02:09 53.6 °F 44.8 °F 29.8 in ONO 5.6 mph 21.9 mph 71.9% 0 in
02:14 54.3 °F 45.9 °F 29.8 in ONO 10 mph 21.3 mph 73% 0 in
02:19 54.3 °F 46 °F 29.8 in ONO 10.2 mph 19.6 mph 73.5% 0 in
02:24 54.1 °F 46 °F 29.8 in ONO 11.2 mph 19 mph 74.5% 0.01 in
02:29 53.6 °F 46 °F 29.8 in ONO 11.2 mph 19.7 mph 75.5% 0.01 in
02:34 53.4 °F 46 °F 29.8 in ONO 11.4 mph 18.4 mph 76.3% 0.01 in
02:39 53.2 °F 46.2 °F 29.8 in ONO 11 mph 13.8 mph 77.4% 0.03 in
02:44 52.9 °F 46.4 °F 29.8 in ONO 9.2 mph 13 mph 78.6% 0.03 in
02:49 52.5 °F 46.2 °F 29.8 in ONO 9 mph 15 mph 79% 0.03 in
02:54 52.5 °F 46.4 °F 29.8 in Oeste 8.1 mph 9.2 mph 79.4% 0.05 in
02:59 52.3 °F 46.4 °F 29.8 in OSO 7.3 mph 5.8 mph 80% 0.05 in
03:04 52.2 °F 46.4 °F 29.8 in SO 4.7 mph 6.2 mph 80.6% 0.05 in
03:09 52.2 °F 46.6 °F 29.8 in SO 4.5 mph 5.8 mph 81% 0.06 in
03:14 52.2 °F 46.4 °F 29.8 in SSO 3.6 mph 6.9 mph 81% 0.07 in
03:19 52 °F 46.6 °F 29.8 in Sur 3.7 mph 6.9 mph 81.8% 0.08 in
03:24 52 °F 46.8 °F 29.8 in Sur 4 mph 6.9 mph 82.4% 0.08 in
03:29 51.8 °F 46.9 °F 29.8 in Sur 4.1 mph 6.9 mph 83.5% 0.07 in
03:34 51.4 °F 46.9 °F 29.8 in SSE 4.7 mph 9.2 mph 84.5% 0.08 in
03:39 51.3 °F 47.1 °F 29.8 in Sur 4.9 mph 10.4 mph 85.3% 0.06 in
03:44 51.3 °F 47.1 °F 29.8 in Sur 5.9 mph 11.8 mph 86% 0.07 in
03:49 51.1 °F 46.9 °F 29.8 in Sur 6.2 mph 11.5 mph 86% 0.07 in
03:54 51.1 °F 47.1 °F 29.8 in Sur 7.6 mph 11.5 mph 86.6% 0.08 in
03:59 50.7 °F 47.1 °F 29.8 in SSE 7.7 mph 11.5 mph 87% 0.06 in
04:04 50.7 °F 46.9 °F 29.8 in SSE 8.1 mph 10.4 mph 87.2% 0.07 in
04:09 50.5 °F 47.1 °F 29.8 in Sur 7.9 mph 12.3 mph 88% 0.07 in
04:14 50.5 °F 47.1 °F 29.8 in Sur 6.9 mph 12.7 mph 88% 0.06 in
04:19 50.4 °F 46.9 °F 29.8 in Sur 7.1 mph 11.5 mph 88% 0.05 in
04:24 50.4 °F 46.9 °F 29.8 in Sur 8.1 mph 10.4 mph 88% 0.04 in
04:29 50.4 °F 46.9 °F 29.8 in Sur 7.6 mph 6.9 mph 88% 0.04 in
04:34 50.4 °F 46.9 °F 29.8 in Sur 5.9 mph 8.1 mph 88% 0.03 in
04:39 50.4 °F 46.9 °F 29.8 in Sur 5.8 mph 6.9 mph 88% 0.03 in
04:44 50.4 °F 46.9 °F 29.8 in SSO 5.2 mph 7.4 mph 88% 0.03 in
04:49 50.4 °F 46.9 °F 29.8 in SSO 5.1 mph 7.4 mph 88% 0.02 in
04:54 50.5 °F 47.1 °F 29.8 in Sur 4.7 mph 6.2 mph 88% 0.02 in
04:59 50.5 °F 47.1 °F 29.8 in Sur 4.5 mph 5.9 mph 87.9% 0.01 in
05:04 50.7 °F 46.9 °F 29.8 in Sur 3.6 mph 6.2 mph 87% 0.01 in
05:09 50.7 °F 47.1 °F 29.8 in SSO 3.7 mph 7.4 mph 87% 0 in
05:14 51.1 °F 47.1 °F 29.8 in SSO 4 mph 9.2 mph 86.6% 0 in
05:19 51.1 °F 46.9 °F 29.8 in SSO 4.1 mph 6.9 mph 86% 0 in
05:24 51.1 °F 46.9 °F 29.8 in SO 4.7 mph 6.2 mph 85.8% 0 in
05:29 51.1 °F 46.8 °F 29.8 in SO 4.4 mph 5.8 mph 85% 0 in
05:34 51.1 °F 46.8 °F 29.8 in OSO 3.1 mph 4.3 mph 85% 0 in
05:39 51.1 °F 46.8 °F 29.8 in ONO 3 mph 4.6 mph 85% 0 in
05:44 51.1 °F 46.8 °F 29.8 in SO 2.4 mph 5.8 mph 85% 0 in
05:49 51.1 °F 46.9 °F 29.8 in SO 2.7 mph 8.1 mph 85.8% 0 in
05:54 51.1 °F 47.1 °F 29.8 in SSO 4 mph 8.1 mph 86% 0 in
05:59 51.3 °F 47.1 °F 29.8 in SO 4.2 mph 9.2 mph 85.5% 0 in
06:04 51.3 °F 46.9 °F 29.8 in SO 5.2 mph 6.9 mph 85% 0 in
06:09 51.4 °F 46.9 °F 29.8 in SO 5 mph 8.1 mph 84.8% 0 in
06:14 51.4 °F 46.8 °F 29.8 in SSO 4.3 mph 8.1 mph 84% 0 in
06:19 51.4 °F 46.8 °F 29.8 in SSE 4.3 mph 6.4 mph 84% 0 in
06:24 51.4 °F 46.8 °F 29.8 in Sur 4.3 mph 9.2 mph 84% 0 in
06:29 51.3 °F 46.9 °F 29.8 in Sur 4.5 mph 8.5 mph 85% 0 in
06:34 51.3 °F 46.8 °F 29.8 in SSO 5.4 mph 10.7 mph 85% 0 in
06:39 51.1 °F 46.9 °F 29.8 in SO 5.5 mph 10.4 mph 85.8% 0 in
06:44 51.1 °F 47.1 °F 29.8 in SO 6.2 mph 8.1 mph 85.9% 0 in
06:49 51.3 °F 47.1 °F 29.8 in SO 6 mph 8.1 mph 85.8% 0 in
06:54 51.3 °F 47.1 °F 29.8 in SO 5.2 mph 6.9 mph 85.7% 0 in
06:59 51.3 °F 46.9 °F 29.8 in SO 5 mph 6.9 mph 85% 0 in
07:04 51.3 °F 46.9 °F 29.8 in SO 4.3 mph 6.9 mph 85% 0 in
07:09 51.3 °F 46.9 °F 29.8 in SO 4.3 mph 8.1 mph 85% 0 in
07:14 51.4 °F 46.8 °F 29.8 in OSO 4.7 mph 6.2 mph 84.1% 0 in
07:19 51.4 °F 46.8 °F 29.8 in Oeste 4.6 mph 5.9 mph 84% 0 in
07:23 51.4 °F 46.8 °F 29.8 in Oeste 4 mph 5.8 mph 84% 0 in
07:29 51.4 °F 46.8 °F 29.8 in OSO 3.9 mph 7.4 mph 84% 0 in
07:34 51.3 °F 46.6 °F 29.8 in OSO 3.6 mph 5.8 mph 84% 0 in
07:39 51.3 °F 46.6 °F 29.8 in OSO 3.5 mph 5.9 mph 84% 0 in
07:44 51.1 °F 46.4 °F 29.8 in Oeste 3.1 mph 10.4 mph 84% 0 in
07:49 51.1 °F 46.2 °F 29.8 in Oeste 3.5 mph 11.5 mph 83.1% 0 in
07:54 51.3 °F 45.7 °F 29.8 in Oeste 5.4 mph 9.2 mph 81.3% 0 in
07:59 51.4 °F 45.3 °F 29.8 in OSO 5.3 mph 8.1 mph 79.5% 0 in
08:04 51.4 °F 45 °F 29.8 in SO 5.2 mph 9.2 mph 78% 0 in
08:09 51.6 °F 44.4 °F 29.8 in SO 5.2 mph 9.2 mph 76.4% 0 in
08:14 52 °F 44.2 °F 29.8 in SO 5.2 mph 12.7 mph 74.9% 0 in
08:19 52.2 °F 44.1 °F 29.8 in SSO 5.2 mph 10.4 mph 73.6% 0 in
08:24 52.3 °F 44.4 °F 29.8 in SSO 5.4 mph 6.4 mph 74.5% 0 in
08:29 52.2 °F 45 °F 29.8 in Sur 5.2 mph 6.9 mph 76.4% 0 in
08:34 52 °F 45.3 °F 29.8 in OSO 4.3 mph 8.1 mph 77.9% 0 in
08:39 51.6 °F 45.1 °F 29.8 in OSO 4.2 mph 6.9 mph 78.6% 0 in
08:44 51.4 °F 45.1 °F 29.8 in OSO 4 mph 7.4 mph 79% 0 in
08:49 51.4 °F 44.8 °F 29.8 in OSO 4 mph 9.2 mph 78.1% 0 in
08:54 51.4 °F 44.1 °F 29.8 in Oeste 4.3 mph 10.7 mph 75.5% 0 in
08:59 52 °F 43.3 °F 29.8 in ONO 4.8 mph 13 mph 72.1% 0 in
09:04 52.3 °F 42.8 °F 29.8 in ONO 6.9 mph 12.7 mph 70% 0 in
09:09 52.7 °F 42.6 °F 29.8 in ONO 7.1 mph 12.7 mph 68.9% 0 in
09:14 52.7 °F 42.4 °F 29.8 in Oeste 8.1 mph 17.3 mph 68% 0 in
09:19 52.7 °F 42.4 °F 29.8 in Oeste 8.3 mph 17.3 mph 68% 0 in
09:24 52.9 °F 42.3 °F 29.8 in ONO 9.2 mph 17.3 mph 67.3% 0 in
09:29 52.9 °F 42.3 °F 29.8 in ONO 9.6 mph 17.5 mph 67% 0 in
09:30 52.9 °F 42.3 °F 29.8 in Oeste 11.4 mph 17.3 mph 67% 0 in
09:39 52.9 °F 42.3 °F 29.8 in ONO 11.1 mph 16.1 mph 67% 0 in
09:44 52.9 °F 42.3 °F 29.8 in Oeste 9.7 mph 16.1 mph 67% 0 in
09:49 52.9 °F 42.1 °F 29.8 in Oeste 9.5 mph 13.8 mph 66.6% 0 in
09:54 52.9 °F 42.3 °F 29.8 in Oeste 8.5 mph 11.5 mph 66.9% 0 in
09:59 53.1 °F 42.3 °F 29.8 in OSO 7.8 mph 11.5 mph 67% 0 in
10:04 53.1 °F 42.1 °F 29.8 in SO 5.4 mph 9.7 mph 66.2% 0 in
10:09 53.1 °F 41.7 °F 29.8 in Oeste 5.6 mph 15 mph 65.3% 0 in
10:14 53.2 °F 41.7 °F 29.8 in Oeste 6.4 mph 11.5 mph 64.6% 0 in
10:19 53.4 °F 41.5 °F 29.8 in Oeste 6.5 mph 12.7 mph 64% 0 in
10:24 53.4 °F 41.2 °F 29.8 in Oeste 6.9 mph 12.7 mph 63.2% 0 in
10:29 53.4 °F 41.2 °F 29.8 in Oeste 6.8 mph 13 mph 63% 0 in
10:34 53.4 °F 40.8 °F 29.8 in Oeste 6.2 mph 13 mph 62.5% 0 in
10:39 53.6 °F 41 °F 29.8 in OSO 6.3 mph 17.3 mph 62.5% 0 in
10:44 53.6 °F 40.8 °F 29.8 in Oeste 6.9 mph 11.8 mph 62% 0 in
10:49 53.8 °F 41 °F 29.8 in Oeste 6.8 mph 10.4 mph 62% 0 in
10:54 53.8 °F 41 °F 29.8 in Oeste 6.2 mph 10.7 mph 62% 0 in
10:59 53.8 °F 40.6 °F 29.8 in ONO 6 mph 9.2 mph 61% 0 in
11:04 53.8 °F 40.6 °F 29.8 in Oeste 5.2 mph 10.4 mph 61.2% 0 in
11:09 54 °F 40.8 °F 29.8 in Oeste 5.3 mph 13.8 mph 61% 0 in
11:14 54 °F 40.8 °F 29.8 in ONO 6.2 mph 9.7 mph 61% 0 in
11:19 54 °F 40.8 °F 29.8 in Oeste 6.2 mph 9.7 mph 61% 0 in
11:24 54 °F 40.8 °F 29.8 in Oeste 5.9 mph 11.8 mph 61% 0 in
11:29 54 °F 40.8 °F 29.8 in Oeste 5.9 mph 13 mph 60.9% 0 in
11:34 54.1 °F 40.6 °F 29.8 in Oeste 5.9 mph 18.5 mph 60.1% 0 in
11:39 54.5 °F 39.9 °F 29.8 in Oeste 6.9 mph 24.2 mph 57.9% 0 in
11:44 54.9 °F 39.9 °F 29.8 in Oeste 11.4 mph 21.9 mph 57% 0 in
11:49 55 °F 39.6 °F 29.8 in ONO 11.8 mph 23 mph 56.1% 0 in
11:54 55.2 °F 39.7 °F 29.8 in ONO 13.7 mph 18.4 mph 56% 0 in
11:59 55.2 °F 39.7 °F 29.8 in Oeste 12.9 mph 18.4 mph 55.8% 0 in
12:04 55.4 °F 39.4 °F 29.8 in Oeste 10 mph 20.7 mph 54.6% 0 in
12:09 55.6 °F 39.4 °F 29.8 in ONO 10.1 mph 21.3 mph 54.2% 0 in
12:14 55.6 °F 39.2 °F 29.8 in ONO 10.7 mph 20.7 mph 53.9% 0 in
12:19 55.6 °F 39.2 °F 29.8 in Oeste 11 mph 21.3 mph 54% 0 in
12:24 55.6 °F 39.2 °F 29.8 in ONO 12.3 mph 20.1 mph 53.9% 0 in
12:29 55.6 °F 38.7 °F 29.8 in Oeste 12 mph 20.7 mph 53% 0 in
12:34 55.8 °F 38.8 °F 29.8 in ONO 10.7 mph 21.3 mph 53% 0 in
12:39 55.8 °F 38.3 °F 29.8 in Oeste 10.9 mph 21.9 mph 51.7% 0 in
12:44 55.9 °F 38.1 °F 29.8 in ONO 11.8 mph 25.6 mph 50.9% 0 in
12:49 56.1 °F 37.8 °F 29.8 in ONO 12.2 mph 25.3 mph 50% 0 in
12:54 56.3 °F 37.8 °F 29.8 in ONO 14.5 mph 22.3 mph 50% 0 in
12:59 56.5 °F 37.6 °F 29.8 in ONO 14.4 mph 26.5 mph 49.2% 0 in
13:04 56.7 °F 37.8 °F 29.8 in ONO 14 mph 25.3 mph 49% 0 in
13:09 56.7 °F 37.6 °F 29.8 in ONO 13.9 mph 25.3 mph 48.7% 0 in
13:14 56.7 °F 37.2 °F 29.8 in Oeste 13.7 mph 24.2 mph 48% 0 in
13:19 56.7 °F 37.6 °F 29.8 in ONO 13.5 mph 18.4 mph 48.9% 0 in
13:24 56.7 °F 37.4 °F 29.8 in ONO 12.5 mph 24.2 mph 48.5% 0 in
13:29 56.8 °F 37.4 °F 29.8 in ONO 12.7 mph 25.6 mph 48% 0 in
13:34 57 °F 37.2 °F 29.8 in ONO 13.7 mph 19.6 mph 47.5% 0 in
13:39 57.4 °F 37.2 °F 29.8 in ONO 13.4 mph 18.5 mph 46.9% 0 in
13:44 57.6 °F 37 °F 29.8 in ONO 12.3 mph 20.8 mph 46.2% 0 in
13:49 57.7 °F 37 °F 29.8 in ONO 12.2 mph 21.3 mph 46% 0 in
13:54 58.1 °F 37.4 °F 29.8 in ONO 11.8 mph 20.7 mph 46% 0 in
13:59 58.3 °F 37 °F 29.8 in ONO 12.1 mph 29.1 mph 45.1% 0 in
14:04 58.1 °F 36.9 °F 29.8 in ONO 13 mph 28.8 mph 44.8% 0 in
14:09 57.9 °F 37 °F 29.8 in ONO 13.2 mph 20.8 mph 45.7% 0 in
14:14 57.9 °F 37 °F 29.8 in ONO 14 mph 21.9 mph 45.8% 0 in
14:19 57.9 °F 36.9 °F 29.8 in ONO 13.5 mph 24.6 mph 45.3% 0 in
14:24 58.1 °F 36.9 °F 29.8 in ONO 11.4 mph 20.8 mph 45.1% 0 in
14:29 58.5 °F 37 °F 29.8 in ONO 11.6 mph 20.7 mph 45% 0 in
14:34 58.5 °F 37.2 °F 29.8 in ONO 12.3 mph 20.7 mph 45% 0 in
14:39 58.5 °F 37.4 °F 29.8 in ONO 12.3 mph 24.8 mph 45.2% 0 in
14:44 58.6 °F 37.4 °F 29.8 in Oeste 12.3 mph 25.3 mph 45% 0 in
14:49 58.8 °F 37 °F 29.8 in Oeste 12.9 mph 25.3 mph 44% 0 in
14:54 58.8 °F 37 °F 29.8 in ONO 15.6 mph 25.3 mph 44% 0 in
14:59 59.2 °F 37 °F 29.8 in ONO 15.3 mph 25.3 mph 43.8% 0 in
15:04 59.4 °F 36.9 °F 29.8 in Oeste 14 mph 27.9 mph 43% 0 in
15:09 59.4 °F 37 °F 29.8 in ONO 14.1 mph 25.6 mph 43.4% 0 in
15:14 59.4 °F 37 °F 29.8 in Oeste 14.7 mph 19 mph 43.3% 0 in
15:19 59.4 °F 36.7 °F 29.8 in Oeste 14.3 mph 24.2 mph 43% 0 in
15:24 59.2 °F 36.1 °F 29.8 in ONO 12.5 mph 26.5 mph 42.2% 0 in
15:29 59.2 °F 36.3 °F 29.8 in ONO 12.7 mph 21.3 mph 42.3% 0 in
15:34 59.2 °F 36.1 °F 29.8 in Oeste 13.7 mph 21.3 mph 42% 0 in
15:39 59.2 °F 36.3 °F 29.8 in Oeste 13.3 mph 23.7 mph 42.5% 0 in
15:44 59.2 °F 36.3 °F 29.8 in Oeste 11.4 mph 24.2 mph 42.5% 0 in
15:49 59.2 °F 36.3 °F 29.8 in ONO 11.4 mph 19.7 mph 42.2% 0 in
15:54 59.4 °F 36.3 °F 29.8 in Oeste 11.4 mph 23 mph 42.4% 0 in
15:59 59.4 °F 36.1 °F 29.8 in ONO 11.9 mph 24.6 mph 42% 0 in
16:04 59.2 °F 36.3 °F 29.8 in ONO 13.7 mph 25.6 mph 42.3% 0 in
16:09 59.2 °F 36.1 °F 29.8 in ONO 14 mph 29.1 mph 42% 0 in
16:14 59 °F 36 °F 29.8 in ONO 15.6 mph 24.2 mph 42.2% 0 in
16:19 59 °F 36.3 °F 29.8 in Oeste 15.1 mph 26.1 mph 42.8% 0 in
16:24 59 °F 36 °F 29.8 in Oeste 12.3 mph 28.8 mph 42% 0 in
16:29 59 °F 36 °F 29.8 in Oeste 13 mph 27.3 mph 42% 0 in
16:34 59 °F 36 °F 29.8 in ONO 16.3 mph 27.6 mph 42% 0 in
16:39 58.8 °F 35.8 °F 29.8 in ONO 16.2 mph 26.8 mph 42% 0 in
16:44 58.8 °F 35.6 °F 29.8 in ONO 15.6 mph 23 mph 41.5% 0 in
16:49 58.8 °F 35.8 °F 29.8 in ONO 15.4 mph 23.5 mph 41.8% 0 in
16:54 58.8 °F 35.4 °F 29.8 in ONO 14.5 mph 23 mph 41.5% 0 in
16:59 58.8 °F 35.8 °F 29.8 in Oeste 14.3 mph 24.2 mph 41.9% 0 in
17:04 58.6 °F 35.4 °F 29.8 in ONO 13.7 mph 25.6 mph 41.8% 0 in
17:09 58.5 °F 35.2 °F 29.8 in ONO 13.9 mph 26.5 mph 41.7% 0 in
17:14 58.5 °F 35.4 °F 29.8 in ONO 14.7 mph 21.9 mph 41.9% 0 in
17:19 58.5 °F 35.2 °F 29.8 in Oeste 14.2 mph 23 mph 41.6% 0 in
17:24 58.5 °F 34.7 °F 29.8 in ONO 12.3 mph 21.9 mph 41% 0 in
17:29 58.3 °F 34.7 °F 29.8 in ONO 12.3 mph 19 mph 41% 0 in
17:34 58.1 °F 34.5 °F 29.8 in Oeste 12.5 mph 20.7 mph 41% 0 in
17:39 57.9 °F 34.3 °F 29.8 in Oeste 12.1 mph 16.3 mph 41.1% 0 in
17:44 57.7 °F 34.5 °F 29.9 in Oeste 10.2 mph 17.3 mph 41.5% 0 in
17:49 57.6 °F 34.3 °F 29.9 in Oeste 10.3 mph 25.3 mph 41.4% 0 in
17:54 57.6 °F 34.3 °F 29.9 in ONO 10.7 mph 15 mph 41.5% 0 in
17:59 57.4 °F 34.5 °F 29.9 in Oeste 10.4 mph 16.3 mph 42% 0 in
18:04 57.2 °F 34.3 °F 29.9 in ONO 9.2 mph 15 mph 42% 0 in
18:09 57 °F 34.2 °F 29.9 in Oeste 8.9 mph 13.7 mph 42% 0 in
18:14 56.8 °F 34 °F 29.9 in Oeste 7.4 mph 15.6 mph 42% 0 in
18:19 56.8 °F 34 °F 29.9 in Oeste 7.6 mph 16.1 mph 42% 0 in
18:24 56.8 °F 34 °F 29.9 in Oeste 8.7 mph 16.1 mph 42% 0 in
18:29 56.8 °F 34 °F 29.9 in Oeste 8.5 mph 11.5 mph 42% 0 in
18:34 56.7 °F 33.8 °F 29.9 in Oeste 7.6 mph 12.7 mph 42% 0 in
18:39 56.5 °F 33.6 °F 29.9 in Oeste 7.3 mph 9.2 mph 42% 0 in
18:44 56.5 °F 34 °F 29.9 in OSO 5.9 mph 7.4 mph 42.6% 0 in
18:49 56.1 °F 34 °F 29.9 in OSO 5.7 mph 9.7 mph 43% 0 in
18:54 55.9 °F 33.8 °F 29.9 in Oeste 4.7 mph 13.8 mph 43% 0 in
18:59 55.9 °F 33.6 °F 29.9 in Oeste 5.2 mph 14 mph 43% 0 in
19:04 55.9 °F 33.6 °F 29.9 in Oeste 6.9 mph 15 mph 43% 0 in
19:09 55.9 °F 33.8 °F 29.9 in Oeste 7.2 mph 17 mph 43% 0 in
19:14 56.1 °F 34 °F 29.9 in OSO 8.5 mph 17.3 mph 43% 0 in
19:19 56.1 °F 33.8 °F 29.9 in OSO 8.3 mph 10.4 mph 43% 0 in
19:24 55.9 °F 33.6 °F 29.9 in Oeste 7.4 mph 11.8 mph 43% 0 in
19:29 55.9 °F 33.6 °F 29.9 in Oeste 7.2 mph 14 mph 43% 0 in
19:34 55.8 °F 33.6 °F 29.9 in OSO 6.2 mph 11.2 mph 43% 0 in
19:39 55.8 °F 33.6 °F 29.9 in OSO 6.2 mph 11.8 mph 43% 0 in
19:44 55.8 °F 33.6 °F 29.9 in OSO 6.2 mph 13 mph 43% 0 in
19:49 55.8 °F 33.6 °F 29.9 in OSO 6.2 mph 13.7 mph 43% 0 in
19:54 55.6 °F 33.4 °F 29.9 in Oeste 6.2 mph 13.8 mph 43% 0 in
19:59 55.6 °F 33.4 °F 29.9 in Oeste 6.5 mph 17.3 mph 43% 0 in
20:04 55.6 °F 33.4 °F 29.9 in Oeste 7.6 mph 15 mph 43% 0 in
20:09 55.6 °F 33.3 °F 29.9 in Oeste 7.6 mph 13.5 mph 42.9% 0 in
20:14 55.2 °F 32.9 °F 29.9 in Oeste 7.6 mph 13.8 mph 42.6% 0 in
20:19 55.2 °F 32.7 °F 29.9 in ONO 7.5 mph 10.7 mph 42.3% 0 in
20:24 55 °F 32.9 °F 29.9 in ONO 6.9 mph 10.4 mph 42.8% 0 in
20:29 55 °F 32.9 °F 29.9 in ONO 6.9 mph 12.7 mph 43% 0 in
20:34 54.9 °F 32.7 °F 29.9 in Oeste 6.9 mph 10.4 mph 43% 0 in
20:39 54.7 °F 32.7 °F 29.9 in Oeste 6.8 mph 15.6 mph 43% 0 in
20:44 54.9 °F 32.7 °F 30 in Oeste 6.4 mph 16.1 mph 43% 0 in
20:49 54.9 °F 32.4 °F 30 in Oeste 6.9 mph 19.7 mph 42.1% 0 in
20:54 54.9 °F 32.2 °F 30 in ONO 9.2 mph 23.5 mph 42% 0 in
20:59 54.9 °F 32.2 °F 30 in ONO 9.2 mph 23 mph 42% 0 in
21:04 55 °F 32.4 °F 30 in ONO 9.2 mph 19.6 mph 42% 0 in
21:09 55 °F 32.4 °F 30 in ONO 9.6 mph 19.7 mph 42% 0 in
21:14 55 °F 31.8 °F 30 in Oeste 11.2 mph 19.6 mph 41.2% 0 in
21:19 55 °F 31.8 °F 30 in Oeste 11.3 mph 23.5 mph 41% 0 in
21:24 55 °F 31.6 °F 30 in Oeste 11.8 mph 20.8 mph 41% 0 in
21:29 55 °F 31.6 °F 30 in Oeste 11.8 mph 20.7 mph 41% 0 in
21:34 55 °F 31.8 °F 30 in ONO 11.8 mph 18.5 mph 41.2% 0 in
21:39 54.9 °F 31.6 °F 30 in ONO 11.9 mph 22.3 mph 41.1% 0 in
21:44 55 °F 31.6 °F 30 in ONO 12.3 mph 23 mph 41% 0 in
21:49 54.9 °F 31.6 °F 30 in ONO 12.7 mph 23.5 mph 41% 0 in
21:54 54.9 °F 31.6 °F 30 in ONO 14.7 mph 20.7 mph 41.2% 0 in
21:59 54.7 °F 32 °F 30 in ONO 14.2 mph 22.5 mph 42% 0 in
22:04 54.5 °F 32 °F 30 in ONO 12.5 mph 23.5 mph 42% 0 in
22:09 54.3 °F 31.8 °F 30 in ONO 12.9 mph 25.6 mph 42% 0 in
22:14 54.1 °F 32 °F 30 in ONO 14.7 mph 21.9 mph 42.7% 0 in
22:19 54.1 °F 32.2 °F 30 in ONO 14.3 mph 20.7 mph 43% 0 in
22:24 54.1 °F 31.8 °F 30 in ONO 12.5 mph 23 mph 42.4% 0 in
22:29 54.3 °F 31.6 °F 30 in Oeste 12.7 mph 23 mph 42% 0 in
22:34 54.1 °F 32.2 °F 30 in ONO 13.7 mph 22.3 mph 43% 0 in
22:39 54.1 °F 32.2 °F 30 in ONO 13.7 mph 21.9 mph 43% 0 in
22:44 54 °F 32 °F 30 in ONO 13.5 mph 23 mph 43% 0 in
22:45 54 °F 32 °F 30 in Oeste 13.5 mph 12.7 mph 43% 0 in
22:54 53.8 °F 31.8 °F 30 in Oeste 12.3 mph 24.2 mph 43% 0 in
22:59 53.8 °F 31.8 °F 30 in ONO 12.2 mph 21.9 mph 43% 0 in
23:04 53.8 °F 31.8 °F 30 in Oeste 11.8 mph 19 mph 43% 0 in
23:09 53.8 °F 31.1 °F 30 in Oeste 11.9 mph 24.6 mph 41.9% 0 in
23:14 54 °F 30.7 °F 30 in ONO 12.3 mph 24.2 mph 41.1% 0 in
23:19 53.8 °F 30.9 °F 30 in ONO 12.4 mph 20.7 mph 41.6% 0 in
23:24 53.4 °F 30.9 °F 30 in ONO 13 mph 19.6 mph 42% 0 in
23:29 53.2 °F 30.7 °F 30 in ONO 12.7 mph 20.7 mph 42% 0 in
23:34 53.1 °F 30.6 °F 30 in ONO 11.4 mph 23 mph 42% 0 in
23:39 53.1 °F 30.9 °F 30 in ONO 11.5 mph 23 mph 42.9% 0 in
23:44 52.7 °F 30.7 °F 30 in ONO 11.8 mph 18.4 mph 43% 0 in
23:49 52.5 °F 30.6 °F 30 in Oeste 11.6 mph 17.3 mph 43% 0 in
23:54 52.3 °F 30.6 °F 30 in ONO 10.2 mph 15 mph 43% 0 in
23:59 52.2 °F 30.4 °F 30 in ONO 10.1 mph 20.7 mph 43% 0 in
Murcia-Puente Tocinos, Espa?a
Compliments of Weather Underground - 3.25 mb

La estación de MeteoMurcia.com, publica sus datos en los siguientes proyectos:

Weather Underground PWS IMURCIAP2 Meteoclimatic www.awekas.at

W3Counter
Web Analytics